This is the latest recevied weather packets stored in our database for station/object RV1CJ-14. If no packets are shown the sender has not sent any weather packets the latest 10 day(s).
| Time | Temp. | Humidity | Pressure | Rain* | Wind** | Luminosity | Snow |
|---|---|---|---|---|---|---|---|
| 1777604403 | 4.44° C | 93% | 1017.3 hPa | 0 mm | - | 30 W/m² | - |
| 1777603803 | 4.44° C | 93% | 1017.4 hPa | 0 mm | - | 19 W/m² | - |
| 1777603203 | 4.44° C | 93% | 1017.4 hPa | 0 mm | - | 21 W/m² | - |
| 1777602603 | 4.44° C | 93% | 1017.4 hPa | 0 mm | - | 14 W/m² | - |
| 1777602003 | 4.44° C | 93% | 1017.3 hPa | 0 mm | - | 9 W/m² | - |
| 1777545003 | 7.22° C | 64% | 1017.4 hPa | 0 mm | - | 179 W/m² | - |
| 1777544403 | 7.22° C | 64% | 1017.4 hPa | 0 mm | - | 174 W/m² | - |
| 1777543803 | 7.78° C | 64% | 1017.5 hPa | 0 mm | - | 165 W/m² | - |
| 1777542003 | 7.78° C | 62% | 1017.5 hPa | 0 mm | - | 172 W/m² | - |
| 1777541403 | 7.78° C | 62% | 1017.5 hPa | 0 mm | - | 200 W/m² | - |
| 1777540803 | 8.33° C | 62% | 1017.5 hPa | 0 mm | - | 178 W/m² | - |
| 1777537203 | 8.89° C | 57% | 1017.6 hPa | 0 mm | - | 749 W/m² | - |
| 1777534803 | 9.44° C | 60% | 1017.6 hPa | 0 mm | - | 652 W/m² | - |
| 1777534203 | 8.89° C | 61% | 1017.6 hPa | 0 mm | - | 649 W/m² | - |
| 1777533603 | 8.33° C | 60% | 1017.5 hPa | 0 mm | - | 626 W/m² | - |
| 1777533003 | 8.33° C | 61% | 1017.5 hPa | 0 mm | - | 461 W/m² | - |
| 1777532403 | 7.78° C | 61% | 1017.5 hPa | 0 mm | - | 517 W/m² | - |
| 1777531803 | 7.78° C | 60% | 1017.5 hPa | 0 mm | - | 376 W/m² | - |
| 1777530603 | 7.22° C | 66% | 1017.6 hPa | 0 mm | - | 534 W/m² | - |
| 1777530003 | 6.11° C | 68% | 1017.7 hPa | 0 mm | - | 471 W/m² | - |
| 1777529403 | 5.56° C | 70% | 1017.7 hPa | 0 mm | - | 325 W/m² | - |
| 1777528803 | 5.56° C | 72% | 1017.7 hPa | 0 mm | - | 202 W/m² | - |
| 1777528203 | 5° C | 72% | 1017.6 hPa | 0 mm | - | 144 W/m² | - |
| 1777527603 | 5° C | 72% | 1017.7 hPa | 0 mm | - | 127 W/m² | - |
| 1777527003 | 4.44° C | 73% | 1017.9 hPa | 0 mm | - | 158 W/m² | - |
* Rain latest hour (hover to see other rain measurements)
** Current wind speed in m/s (hover to see current wind gust speed)